This is the latest recevied weather packets stored in our database for station/object KB1QVF. If no packets are shown the sender has not sent any weather packets the latest 10 day(s).
| Time | Temp. | Humidity | Pressure | Rain* | Wind** | Luminosity | Snow |
|---|---|---|---|---|---|---|---|
| 1777999399 | 23.89° C | 44% | 1012 hPa | 0 mm | - | 788 W/m² | - |
| 1777999097 | 24.44° C | 42% | 1012 hPa | 0 mm | - | 787 W/m² | - |
| 1777998796 | 23.89° C | 43% | 1012.2 hPa | 0 mm | - | 779 W/m² | - |
| 1777998494 | 23.89° C | 44% | 1012 hPa | 0 mm | - | 783 W/m² | - |
| 1777998190 | 24.44° C | 42% | 1012.3 hPa | 0 mm | - | 777 W/m² | - |
| 1777997887 | 24.44° C | 42% | 1012.5 hPa | 0 mm | - | 773 W/m² | - |
| 1777997584 | 23.89° C | 42% | 1012.1 hPa | 0 mm | - | 770 W/m² | - |
| 1777997281 | 23.89° C | 43% | 1012.2 hPa | 0 mm | - | 769 W/m² | - |
| 1777996979 | 23.89° C | 44% | 1012.3 hPa | 0 mm | - | 763 W/m² | - |
| 1777996676 | 23.89° C | 44% | 1012.6 hPa | 0 mm | - | 759 W/m² | - |
| 1777996371 | 24.44° C | 42% | 1012.9 hPa | 0 mm | - | 754 W/m² | - |
| 1777996068 | 23.89° C | 43% | 1012.4 hPa | 0 mm | - | 744 W/m² | - |
| 1777995765 | 23.33° C | 46% | 1012.4 hPa | 0 mm | - | 739 W/m² | - |
| 1777995461 | 23.33° C | 44% | 1012.8 hPa | 0 mm | - | 737 W/m² | - |
| 1777995158 | 22.78° C | 47% | 1012.9 hPa | 0 mm | - | 730 W/m² | - |
| 1777994855 | 23.33° C | 45% | 1012.8 hPa | 0 mm | - | 769 W/m² | - |
| 1777994552 | 22.78° C | 50% | 1012.8 hPa | 0 mm | - | 758 W/m² | - |
| 1777994246 | 21.67° C | 50% | 1013 hPa | 0 mm | - | 713 W/m² | - |
| 1777993944 | 21.67° C | 50% | 1012.6 hPa | 0 mm | - | 706 W/m² | - |
| 1777993641 | 21.11° C | 53% | 1013 hPa | 0 mm | - | 762 W/m² | - |
| 1777993338 | 20.56° C | 54% | 1012.8 hPa | 0 mm | - | 917 W/m² | - |
| 1777993038 | 20° C | 56% | 1013 hPa | 0 mm | - | 620 W/m² | - |
| 1777992737 | 19.44° C | 59% | 1013 hPa | 0 mm | - | 465 W/m² | - |
| 1777992434 | 19.44° C | 58% | 1013 hPa | 0 mm | - | 373 W/m² | - |
| 1777992132 | 18.89° C | 58% | 1012.9 hPa | 0 mm | - | 347 W/m² | - |
* Rain latest hour (hover to see other rain measurements)
** Current wind speed in m/s (hover to see current wind gust speed)